Time;durP1;ratioP1;P1;durP2;ratioP2;P2;SDS_P1;SDS_P2;PMS_P1;PMS_P2;Temp;Humidity;BMP_temperature;BMP_pressure;BME280_temperature;BME280_humidity;BME280_pressure;Samples;Min_cycle;Max_cycle;Signal;HPM_P1;HPM_P2
2021/07/17 00:00:20;;;;;;;9.30;4.05;;;19.20;77.00;;;;;;4991718;28;20030;-77
2021/07/17 00:02:45;;;;;;;8.80;3.50;;;19.20;77.00;;;;;;4984787;28;20029;-77
2021/07/17 00:05:13;;;;;;;9.00;3.78;;;19.20;77.10;;;;;;4990230;28;20034;-77
2021/07/17 00:07:40;;;;;;;8.35;3.83;;;19.20;77.10;;;;;;4992150;28;20105;-77
2021/07/17 00:10:07;;;;;;;6.72;3.15;;;19.20;77.20;;;;;;4992115;28;20106;-77
2021/07/17 00:12:33;;;;;;;11.13;3.88;;;19.20;77.20;;;;;;4990870;28;20392;-77
2021/07/17 00:14:58;;;;;;;8.55;3.70;;;19.10;77.20;;;;;;4993010;28;20018;-77
2021/07/17 00:17:24;;;;;;;9.23;3.60;;;19.10;77.20;;;;;;4992738;28;20444;-78
2021/07/17 00:19:50;;;;;;;7.05;2.83;;;19.10;77.30;;;;;;4992379;28;20109;-78
2021/07/17 00:22:15;;;;;;;9.45;3.60;;;19.10;77.30;;;;;;4986135;28;20026;-77
2021/07/17 00:24:41;;;;;;;7.35;2.67;;;19.10;77.40;;;;;;4992409;28;20018;-77
2021/07/17 00:27:06;;;;;;;8.23;3.30;;;19.20;77.40;;;;;;4992095;28;20037;-77
2021/07/17 00:29:32;;;;;;;6.82;3.10;;;19.10;77.30;;;;;;4992623;28;20046;-76
2021/07/17 00:31:57;;;;;;;10.63;3.75;;;19.10;77.30;;;;;;4990709;28;20053;-76
2021/07/17 00:34:24;;;;;;;6.32;3.38;;;19.10;77.30;;;;;;4990956;28;20385;-77
2021/07/17 00:36:50;;;;;;;8.30;3.30;;;19.10;77.40;;;;;;5006912;28;20029;-76
2021/07/17 00:39:15;;;;;;;8.00;3.88;;;19.00;77.50;;;;;;4990551;28;20018;-76
2021/07/17 00:41:41;;;;;;;7.20;2.97;;;19.00;77.60;;;;;;4987631;28;20473;-76
2021/07/17 00:44:07;;;;;;;9.90;4.15;;;19.00;77.60;;;;;;4984897;28;20046;-76
2021/07/17 00:46:33;;;;;;;7.03;3.53;;;19.00;77.70;;;;;;5006182;28;20065;-76
2021/07/17 00:48:59;;;;;;;8.68;3.47;;;18.90;77.70;;;;;;4991377;28;20038;-76
2021/07/17 00:51:26;;;;;;;8.18;3.53;;;19.00;77.80;;;;;;4990896;28;20117;-76
2021/07/17 00:53:51;;;;;;;9.63;3.15;;;18.90;78.40;;;;;;4987372;28;20102;-76
2021/07/17 00:56:19;;;;;;;9.73;3.63;;;18.90;77.80;;;;;;4991074;28;20046;-75
2021/07/17 00:58:48;;;;;;;11.05;3.80;;;18.90;77.90;;;;;;4991081;28;20026;-77
2021/07/17 01:01:14;;;;;;;8.30;3.55;;;18.80;77.90;;;;;;4990713;28;20022;-77
2021/07/17 01:03:41;;;;;;;12.27;4.47;;;18.80;78.00;;;;;;4989118;28;20036;-77
2021/07/17 01:06:06;;;;;;;10.23;3.63;;;18.80;78.20;;;;;;4988222;28;20029;-77
2021/07/17 01:08:32;;;;;;;9.80;4.10;;;18.70;78.20;;;;;;4990872;28;20392;-77
2021/07/17 01:10:57;;;;;;;5.70;3.38;;;18.80;78.30;;;;;;4983697;28;20034;-76
2021/07/17 01:13:23;;;;;;;8.55;3.72;;;18.70;78.30;;;;;;4987574;28;20027;-76
2021/07/17 01:15:49;;;;;;;9.15;3.63;;;18.70;78.30;;;;;;4980338;28;20472;-76
2021/07/17 01:18:14;;;;;;;9.88;3.90;;;18.70;78.30;;;;;;4990762;28;20022;-76
2021/07/17 01:20:40;;;;;;;9.32;4.07;;;18.60;78.30;;;;;;4986566;28;20354;-76
2021/07/17 01:23:07;;;;;;;9.48;3.78;;;18.60;78.50;;;;;;4987601;28;20026;-77
2021/07/17 01:25:34;;;;;;;8.75;3.70;;;18.60;78.50;;;;;;4989624;28;20109;-77
2021/07/17 01:28:00;;;;;;;11.43;4.00;;;18.60;78.50;;;;;;4990398;28;20022;-78
2021/07/17 01:30:35;;;;;;;8.80;4.03;;;18.60;78.40;;;;;;4990257;28;20488;-78
2021/07/17 01:33:01;;;;;;;8.95;3.60;;;18.60;78.50;;;;;;4989740;28;20027;-77
2021/07/17 01:35:27;;;;;;;11.10;3.80;;;18.60;78.50;;;;;;4988798;28;20081;-77
2021/07/17 01:37:52;;;;;;;7.53;3.50;;;18.50;79.10;;;;;;4991022;28;20034;-77
2021/07/17 01:40:19;;;;;;;8.30;3.80;;;18.60;78.50;;;;;;4951123;28;1029199;-77
2021/07/17 01:42:46;;;;;;;9.02;3.85;;;18.60;78.50;;;;;;4986424;28;20038;-77
2021/07/17 01:45:24;;;;;;;10.13;3.67;;;18.60;78.50;;;;;;4990842;28;20030;-78
2021/07/17 01:47:50;;;;;;;6.97;3.25;;;18.60;78.40;;;;;;4989040;28;20045;-80
2021/07/17 01:50:16;;;;;;;8.10;3.70;;;18.60;78.40;;;;;;4980775;28;20439;-78
2021/07/17 01:52:42;;;;;;;8.48;3.70;;;18.60;78.40;;;;;;4991372;28;20031;-78
2021/07/17 01:55:10;;;;;;;6.95;3.45;;;18.50;78.40;;;;;;4990789;28;20030;-78
2021/07/17 01:57:36;;;;;;;7.57;3.67;;;18.50;78.40;;;;;;4987770;28;20030;-78
2021/07/17 02:00:03;;;;;;;7.88;3.88;;;18.50;78.50;;;;;;4979817;28;20084;-77
2021/07/17 02:02:29;;;;;;;7.90;3.75;;;18.40;78.50;;;;;;4991241;28;20038;-78
2021/07/17 02:04:54;;;;;;;6.43;3.15;;;18.50;78.50;;;;;;4988324;28;20440;-77
2021/07/17 02:07:20;;;;;;;8.18;3.60;;;18.40;78.50;;;;;;4991180;28;20058;-78
2021/07/17 02:09:45;;;;;;;8.95;3.97;;;18.50;78.60;;;;;;4990648;28;20057;-77
2021/07/17 02:12:11;;;;;;;7.25;3.38;;;18.40;78.50;;;;;;4990707;28;20034;-78
2021/07/17 02:14:38;;;;;;;8.02;3.55;;;18.50;78.60;;;;;;4989753;28;20041;-78
2021/07/17 02:17:05;;;;;;;9.02;3.30;;;18.50;78.60;;;;;;5005878;28;20022;-77
2021/07/17 02:19:32;;;;;;;8.90;3.20;;;18.40;78.60;;;;;;4979297;28;20038;-77
2021/07/17 02:21:57;;;;;;;8.82;3.42;;;18.40;78.60;;;;;;4991101;28;20109;-78
2021/07/17 02:24:23;;;;;;;7.90;3.55;;;18.40;78.60;;;;;;4989226;28;20169;-79
2021/07/17 02:26:49;;;;;;;9.43;3.80;;;18.40;78.70;;;;;;4991373;28;20023;-78
2021/07/17 02:29:15;;;;;;;7.03;3.38;;;18.40;78.70;;;;;;4989617;28;20046;-78
2021/07/17 02:31:41;;;;;;;8.68;3.78;;;18.40;78.70;;;;;;4987531;28;20014;-78
2021/07/17 02:34:09;;;;;;;7.43;3.67;;;18.30;78.80;;;;;;4990226;28;20359;-78
2021/07/17 02:36:36;;;;;;;8.30;3.65;;;18.30;78.90;;;;;;4988479;28;20049;-78
2021/07/17 02:39:02;;;;;;;9.65;3.25;;;18.30;78.90;;;;;;4994431;28;20035;-78
2021/07/17 02:41:28;;;;;;;11.48;3.97;;;18.30;79.00;;;;;;4986408;28;20034;-78
2021/07/17 02:43:54;;;;;;;9.20;3.65;;;18.20;79.10;;;;;;4989762;28;20465;-78
2021/07/17 02:46:20;;;;;;;7.35;3.42;;;18.20;79.20;;;;;;4994106;28;20076;-78
2021/07/17 02:48:45;;;;;;;9.38;3.67;;;18.20;79.30;;;;;;4985619;28;20042;-78
2021/07/17 02:51:12;;;;;;;9.07;3.83;;;18.20;79.30;;;;;;5008899;28;20038;-77
2021/07/17 02:53:37;;;;;;;7.68;3.00;;;18.20;79.40;;;;;;4993045;28;20022;-77
2021/07/17 02:56:03;;;;;;;9.25;3.38;;;18.20;79.50;;;;;;4988162;28;20026;-78
2021/07/17 02:58:29;;;;;;;6.95;2.95;;;18.20;79.60;;;;;;4993908;28;20018;-77
2021/07/17 03:00:55;;;;;;;7.93;3.40;;;18.20;79.60;;;;;;4994013;28;20389;-78
2021/07/17 03:03:22;;;;;;;9.55;3.35;;;18.20;79.70;;;;;;5008028;28;20030;-77
2021/07/17 03:05:48;;;;;;;12.05;3.90;;;18.10;79.60;;;;;;4992553;28;20026;-78
2021/07/17 03:08:17;;;;;;;12.50;3.92;;;18.10;79.70;;;;;;4993640;28;20025;-78
2021/07/17 03:10:43;;;;;;;9.55;3.58;;;18.10;79.90;;;;;;4993756;28;20077;-78
2021/07/17 03:13:10;;;;;;;11.13;4.20;;;18.00;80.00;;;;;;4993882;28;20022;-77
2021/07/17 03:15:36;;;;;;;12.60;4.72;;;18.00;80.10;;;;;;4993304;28;20030;-78
2021/07/17 03:18:01;;;;;;;10.77;4.25;;;18.00;80.20;;;;;;4993603;28;20366;-78
2021/07/17 03:20:27;;;;;;;11.75;4.15;;;17.90;80.30;;;;;;4993172;28;20093;-78
2021/07/17 03:22:52;;;;;;;11.23;3.92;;;17.90;80.50;;;;;;4993567;28;20026;-78
2021/07/17 03:25:18;;;;;;;11.88;3.80;;;17.90;80.60;;;;;;4990655;28;20062;-77
2021/07/17 03:27:44;;;;;;;9.60;3.30;;;17.90;80.60;;;;;;4993255;28;20072;-78
2021/07/17 03:30:10;;;;;;;7.72;3.28;;;17.80;80.60;;;;;;4990590;28;20045;-78
2021/07/17 03:32:35;;;;;;;10.13;3.80;;;17.80;80.50;;;;;;4992796;28;20033;-78
2021/07/17 03:35:01;;;;;;;8.70;3.53;;;17.80;80.60;;;;;;4992484;28;20034;-78
2021/07/17 03:37:27;;;;;;;9.65;3.75;;;17.70;80.80;;;;;;4991835;28;20106;-78
2021/07/17 03:39:52;;;;;;;8.77;3.58;;;17.70;80.90;;;;;;4991115;28;20023;-79
2021/07/17 03:42:18;;;;;;;8.77;3.08;;;17.70;80.90;;;;;;4993031;28;20467;-78
2021/07/17 03:44:44;;;;;;;7.97;3.25;;;17.70;80.90;;;;;;4993034;28;20023;-78
2021/07/17 03:47:09;;;;;;;8.18;3.63;;;17.60;81.00;;;;;;4993090;28;20432;-78
2021/07/17 03:49:35;;;;;;;9.75;3.63;;;17.60;81.00;;;;;;4991871;28;20038;-78
2021/07/17 03:52:01;;;;;;;8.27;3.33;;;17.60;81.10;;;;;;4992811;28;20101;-77
2021/07/17 03:54:26;;;;;;;11.60;3.85;;;17.60;81.20;;;;;;4992751;28;20037;-78
2021/07/17 03:56:52;;;;;;;10.23;3.83;;;17.50;81.20;;;;;;4990515;28;20029;-78
2021/07/17 03:59:17;;;;;;;10.32;3.20;;;17.50;81.20;;;;;;5007611;28;20030;-78
2021/07/17 04:01:43;;;;;;;8.70;2.97;;;17.50;81.30;;;;;;4992607;28;20019;-78
2021/07/17 04:04:12;;;;;;;9.38;3.22;;;17.40;81.30;;;;;;4992309;28;20384;-78
2021/07/17 04:06:38;;;;;;;7.53;3.20;;;17.40;81.30;;;;;;5000226;28;20026;-78
2021/07/17 04:09:03;;;;;;;10.80;3.20;;;17.40;81.30;;;;;;4992352;28;20042;-78
2021/07/17 04:11:29;;;;;;;7.60;3.42;;;17.40;81.30;;;;;;4992799;28;20528;-79
2021/07/17 04:13:55;;;;;;;8.48;3.00;;;17.40;81.40;;;;;;5007498;28;20069;-78
2021/07/17 04:16:20;;;;;;;7.53;3.20;;;17.40;81.40;;;;;;4992731;28;20057;-78
2021/07/17 04:18:46;;;;;;;9.68;3.50;;;17.40;81.50;;;;;;4991783;28;20029;-79
2021/07/17 04:21:12;;;;;;;9.70;3.97;;;17.30;81.50;;;;;;4988382;28;20481;-78
2021/07/17 04:23:39;;;;;;;9.35;3.63;;;17.30;81.60;;;;;;4983066;28;20023;-79
2021/07/17 04:26:05;;;;;;;9.50;4.10;;;17.30;81.60;;;;;;4987620;28;20030;-79
2021/07/17 04:28:30;;;;;;;8.30;3.75;;;17.30;81.70;;;;;;4992581;28;20122;-79
2021/07/17 04:30:56;;;;;;;12.27;3.58;;;17.20;81.70;;;;;;4981534;28;20093;-79
2021/07/17 04:33:21;;;;;;;12.30;4.22;;;17.30;81.80;;;;;;4987378;28;20401;-78
2021/07/17 04:35:47;;;;;;;9.15;3.40;;;17.20;81.80;;;;;;4991505;28;20019;-79
2021/07/17 04:38:12;;;;;;;13.23;3.85;;;17.20;81.80;;;;;;4991644;28;20027;-79
2021/07/17 04:40:38;;;;;;;10.00;3.33;;;17.20;81.90;;;;;;4992459;28;20049;-79
2021/07/17 04:43:04;;;;;;;11.65;3.50;;;17.20;81.90;;;;;;4992178;28;20031;-78
2021/07/17 04:45:29;;;;;;;9.23;3.70;;;17.30;81.90;;;;;;4991730;28;20037;-78
2021/07/17 04:47:55;;;;;;;13.65;3.92;;;17.30;81.90;;;;;;4991202;28;20030;-78
2021/07/17 04:50:21;;;;;;;10.73;4.10;;;17.30;81.90;;;;;;4992009;28;20035;-79
2021/07/17 04:52:46;;;;;;;7.30;3.20;;;17.30;82.00;;;;;;4991956;28;20022;-77
2021/07/17 04:55:12;;;;;;;13.45;3.80;;;17.30;82.00;;;;;;4989294;28;20057;-78
2021/07/17 04:57:37;;;;;;;8.75;3.53;;;17.30;81.90;;;;;;4991169;28;20034;-78
2021/07/17 05:00:04;;;;;;;9.18;3.75;;;17.30;82.00;;;;;;4989919;28;20038;-78
2021/07/17 05:02:30;;;;;;;9.35;3.85;;;17.30;82.00;;;;;;4985412;28;20042;-78
2021/07/17 05:04:55;;;;;;;10.55;3.85;;;17.30;82.00;;;;;;4991382;28;20472;-78
2021/07/17 05:07:21;;;;;;;8.98;3.28;;;17.30;82.10;;;;;;4988813;28;20033;-79
2021/07/17 05:09:46;;;;;;;8.35;3.55;;;17.40;82.00;;;;;;4991371;28;20034;-79
2021/07/17 05:12:12;;;;;;;7.78;3.67;;;17.40;81.90;;;;;;4989881;28;20113;-78
2021/07/17 05:14:37;;;;;;;8.52;3.47;;;17.50;81.80;;;;;;4990264;28;20034;-78
2021/07/17 05:17:03;;;;;;;8.73;3.10;;;17.50;81.90;;;;;;4989541;28;20080;-78
2021/07/17 05:19:28;;;;;;;7.22;3.58;;;17.50;81.70;;;;;;4986818;28;20441;-78
2021/07/17 05:21:54;;;;;;;10.35;3.72;;;17.60;81.70;;;;;;4990460;28;20050;-78
2021/07/17 05:24:20;;;;;;;8.15;3.40;;;17.70;82.30;;;;;;4992962;28;20023;-77
2021/07/17 05:26:45;;;;;;;8.50;3.60;;;17.70;81.70;;;;;;4991120;28;20034;-77
2021/07/17 05:29:11;;;;;;;8.25;3.10;;;17.80;81.50;;;;;;4990534;28;20049;-84
2021/07/17 05:31:36;;;;;;;11.80;4.40;;;17.90;81.30;;;;;;4988706;28;20035;-77
2021/07/17 05:34:02;;;;;;;8.05;3.15;;;18.10;81.20;;;;;;4984144;28;20081;-79
2021/07/17 05:36:27;;;;;;;8.90;3.55;;;18.40;80.50;;;;;;4985531;28;20406;-78
2021/07/17 05:38:53;;;;;;;11.10;3.33;;;18.70;80.00;;;;;;4983400;28;20031;-78
2021/07/17 05:41:18;;;;;;;7.82;3.50;;;19.10;78.80;;;;;;4987984;28;20130;-79
2021/07/17 05:43:44;;;;;;;8.50;3.00;;;19.70;77.50;;;;;;4985434;28;20034;-78
2021/07/17 05:46:09;;;;;;;8.38;3.15;;;20.50;75.50;;;;;;4982451;28;20022;-78
2021/07/17 05:48:35;;;;;;;6.65;2.97;;;21.10;73.60;;;;;;4981147;28;20030;-77
2021/07/17 05:51:00;;;;;;;5.70;2.70;;;21.50;72.10;;;;;;4987292;28;20019;-77
2021/07/17 05:53:27;;;;;;;9.30;3.10;;;21.80;71.50;;;;;;4989857;28;20026;-78
2021/07/17 05:55:53;;;;;;;6.43;2.80;;;22.10;70.60;;;;;;4990444;28;20026;-79
2021/07/17 05:58:20;;;;;;;8.57;3.08;;;22.00;70.40;;;;;;4989681;28;20026;-78
2021/07/17 06:00:46;;;;;;;5.18;2.53;;;21.90;70.70;;;;;;4989937;28;20041;-79
2021/07/17 06:03:11;;;;;;;9.05;3.25;;;21.90;70.90;;;;;;5002387;28;20494;-79
2021/07/17 06:05:37;;;;;;;8.70;2.67;;;22.00;71.00;;;;;;4987901;28;20480;-79
2021/07/17 06:08:03;;;;;;;6.55;2.53;;;22.00;70.90;;;;;;4987440;28;20030;-78
2021/07/17 06:10:28;;;;;;;4.78;1.92;;;22.00;70.90;;;;;;4979523;28;20513;-79
2021/07/17 06:12:54;;;;;;;6.25;2.65;;;21.80;71.50;;;;;;4989672;28;20053;-78
2021/07/17 06:15:19;;;;;;;7.60;2.72;;;21.70;72.00;;;;;;4992982;28;20027;-81
2021/07/17 06:17:45;;;;;;;6.38;2.55;;;21.50;72.40;;;;;;4991830;28;20070;-78
2021/07/17 06:20:11;;;;;;;5.70;2.47;;;21.30;72.90;;;;;;5008990;28;20085;-80
2021/07/17 06:22:36;;;;;;;8.50;3.72;;;21.60;72.60;;;;;;4990191;28;20033;-80
2021/07/17 06:25:04;;;;;;;14.23;10.77;;;21.70;72.70;;;;;;4994175;28;20030;-79
2021/07/17 06:27:29;;;;;;;7.80;4.60;;;22.30;71.40;;;;;;4991799;28;20449;-80
2021/07/17 06:29:55;;;;;;;6.53;2.95;;;22.20;71.30;;;;;;4990724;28;20058;-79
2021/07/17 06:32:21;;;;;;;7.15;2.90;;;22.10;71.60;;;;;;4991825;28;20117;-87
2021/07/17 06:34:47;;;;;;;6.22;2.40;;;21.90;71.50;;;;;;4987725;28;20027;-79
2021/07/17 06:37:12;;;;;;;5.05;2.28;;;21.80;72.10;;;;;;4989759;28;20442;-79
2021/07/17 06:39:38;;;;;;;6.53;2.78;;;21.60;72.50;;;;;;4992599;28;20035;-77
2021/07/17 06:42:03;;;;;;;5.35;2.45;;;21.50;72.60;;;;;;4990383;28;20030;-82
2021/07/17 06:44:29;;;;;;;6.22;2.38;;;21.30;72.90;;;;;;4993519;28;20061;-81
2021/07/17 06:46:54;;;;;;;6.30;2.85;;;21.20;73.30;;;;;;4993613;28;20019;-82
2021/07/17 06:49:20;;;;;;;6.45;2.63;;;21.10;73.40;;;;;;4992842;28;20558;-80
2021/07/17 06:51:45;;;;;;;6.20;2.60;;;21.00;73.70;;;;;;4989035;28;20026;-80
2021/07/17 06:54:11;;;;;;;5.43;2.30;;;21.10;74.10;;;;;;4992090;28;20030;-80
2021/07/17 06:56:36;;;;;;;5.63;2.50;;;21.20;73.80;;;;;;4991565;28;20035;-80
2021/07/17 06:59:02;;;;;;;5.90;2.60;;;21.30;73.60;;;;;;4993995;28;20026;-81
2021/07/17 07:01:27;;;;;;;5.68;2.30;;;21.40;73.30;;;;;;4992367;28;20025;-81
2021/07/17 07:03:53;;;;;;;7.45;2.72;;;21.50;73.10;;;;;;4991759;28;20069;-80
2021/07/17 07:06:18;;;;;;;7.68;3.03;;;21.50;72.80;;;;;;4988020;28;20104;-80
2021/07/17 07:08:44;;;;;;;8.70;2.60;;;21.60;72.90;;;;;;4990389;28;20344;-80
2021/07/17 07:11:09;;;;;;;5.78;2.70;;;21.60;72.60;;;;;;4987869;28;20538;-81
2021/07/17 07:13:35;;;;;;;5.82;2.22;;;21.80;72.50;;;;;;4991813;28;20026;-81
2021/07/17 07:16:01;;;;;;;6.53;2.78;;;22.00;72.10;;;;;;4985010;28;20393;-80
2021/07/17 07:18:26;;;;;;;4.47;2.22;;;22.20;71.70;;;;;;4985746;28;20073;-81
2021/07/17 07:20:52;;;;;;;6.38;2.70;;;22.30;71.30;;;;;;4980824;28;20121;-80
2021/07/17 07:23:17;;;;;;;6.57;2.58;;;22.30;70.60;;;;;;4979986;28;20027;-81
2021/07/17 07:25:43;;;;;;;5.07;2.40;;;22.40;70.60;;;;;;4982904;28;20050;-81
2021/07/17 07:28:09;;;;;;;5.68;2.75;;;22.50;70.50;;;;;;4980087;28;20134;-81
2021/07/17 07:30:35;;;;;;;6.07;2.58;;;22.70;70.00;;;;;;4983982;28;20101;-81
2021/07/17 07:33:01;;;;;;;7.93;2.50;;;22.80;69.50;;;;;;4980782;28;20109;-81
2021/07/17 07:35:27;;;;;;;6.22;2.30;;;23.00;69.10;;;;;;4983218;28;20114;-81
2021/07/17 07:37:54;;;;;;;5.95;2.65;;;23.00;68.80;;;;;;4983821;28;20128;-81
2021/07/17 07:40:21;;;;;;;7.68;2.70;;;22.90;68.10;;;;;;4981432;28;20137;-81
2021/07/17 07:42:47;;;;;;;4.88;2.20;;;22.90;68.30;;;;;;4981635;28;20025;-81
2021/07/17 07:45:13;;;;;;;6.70;2.50;;;22.80;67.90;;;;;;4983236;28;20023;-81
2021/07/17 07:47:39;;;;;;;6.43;2.47;;;22.80;67.90;;;;;;4981429;28;20031;-81
2021/07/17 07:50:06;;;;;;;5.97;2.63;;;22.80;67.80;;;;;;4987758;28;20485;-80
2021/07/17 07:52:32;;;;;;;4.43;2.20;;;22.80;67.10;;;;;;4977226;28;20087;-80
2021/07/17 07:54:58;;;;;;;8.25;2.10;;;22.80;67.60;;;;;;4981787;28;20092;-80
2021/07/17 07:57:23;;;;;;;5.18;1.90;;;23.00;67.70;;;;;;4981661;28;20026;-80
2021/07/17 07:59:49;;;;;;;6.10;2.50;;;23.10;67.20;;;;;;4980153;28;20014;-80
2021/07/17 08:02:15;;;;;;;6.00;2.17;;;23.20;65.70;;;;;;4980942;28;20022;-81
2021/07/17 08:04:40;;;;;;;5.05;2.00;;;23.20;65.80;;;;;;4981487;28;20041;-81
2021/07/17 08:07:06;;;;;;;4.72;1.95;;;23.20;65.40;;;;;;4980286;28;20031;-81
2021/07/17 08:09:32;;;;;;;5.82;2.10;;;23.20;65.10;;;;;;4983457;28;20035;-81
2021/07/17 08:11:57;;;;;;;4.28;1.90;;;23.30;64.70;;;;;;4981796;28;20066;-80
2021/07/17 08:14:23;;;;;;;3.90;1.60;;;23.40;64.60;;;;;;4993443;28;20109;-81
2021/07/17 08:16:48;;;;;;;3.13;1.30;;;23.50;64.40;;;;;;4993059;28;20350;-81
2021/07/17 08:19:15;;;;;;;3.28;1.42;;;23.60;63.80;;;;;;4988097;28;20527;-81
2021/07/17 08:21:40;;;;;;;4.75;1.85;;;23.70;63.70;;;;;;4979373;28;20116;-81
2021/07/17 08:24:08;;;;;;;4.72;1.70;;;23.80;62.50;;;;;;4981712;28;20111;-81
2021/07/17 08:26:34;;;;;;;2.97;1.40;;;23.80;62.60;;;;;;4981632;28;20058;-81
2021/07/17 08:28:59;;;;;;;3.38;1.35;;;23.80;62.50;;;;;;4981672;28;20441;-81
2021/07/17 08:31:25;;;;;;;2.25;1.30;;;23.90;62.20;;;;;;4977864;28;20061;-80
2021/07/17 08:33:50;;;;;;;2.53;1.10;;;23.90;61.60;;;;;;4980190;28;20019;-81
2021/07/17 08:36:17;;;;;;;3.60;1.42;;;24.10;62.00;;;;;;4981622;28;20102;-81
2021/07/17 08:38:44;;;;;;;3.47;1.30;;;24.10;61.60;;;;;;4980524;28;20448;-81
2021/07/17 08:41:10;;;;;;;3.80;1.63;;;24.20;61.30;;;;;;4981324;28;20033;-80
2021/07/17 08:43:36;;;;;;;2.70;1.40;;;24.20;61.00;;;;;;4980074;28;20050;-80
2021/07/17 08:46:03;;;;;;;4.82;1.80;;;24.30;61.20;;;;;;4981301;28;20027;-81
2021/07/17 08:48:29;;;;;;;3.20;1.38;;;24.50;60.90;;;;;;4981851;28;20027;-80
2021/07/17 08:50:57;;;;;;;4.13;1.60;;;24.50;59.60;;;;;;4982214;28;20029;-81
2021/07/17 08:53:22;;;;;;;3.10;1.50;;;24.30;59.40;;;;;;4979910;28;20042;-81
2021/07/17 08:55:48;;;;;;;2.80;1.23;;;24.30;59.60;;;;;;4980625;28;20506;-81
2021/07/17 08:58:14;;;;;;;3.40;1.40;;;24.40;60.30;;;;;;4982584;28;20026;-81
2021/07/17 09:00:43;;;;;;;3.10;1.08;;;24.50;59.50;;;;;;4980313;28;20018;-81
2021/07/17 09:03:12;;;;;;;3.10;1.10;;;24.50;59.30;;;;;;4979620;28;20045;-81
2021/07/17 09:05:42;;;;;;;2.28;1.00;;;24.50;58.70;;;;;;4978870;28;20070;-80
2021/07/17 09:08:09;;;;;;;3.38;1.48;;;24.60;58.80;;;;;;4979795;28;20432;-80
2021/07/17 09:10:42;;;;;;;2.83;1.35;;;24.60;58.50;;;;;;4982212;28;20573;-78
2021/07/17 09:13:18;;;;;;;1.75;1.00;;;24.70;58.80;;;;;;4981409;28;20416;-80
2021/07/17 09:15:50;;;;;;;3.55;1.38;;;24.80;58.80;;;;;;4980947;28;20019;-79
2021/07/17 09:18:28;;;;;;;2.88;1.27;;;24.80;58.50;;;;;;4980346;28;20385;-80
2021/07/17 09:21:13;;;;;;;2.53;1.13;;;24.80;58.40;;;;;;4982670;28;20470;-79
2021/07/17 09:23:50;;;;;;;3.47;1.48;;;24.90;58.10;;;;;;4979721;28;20145;-80
2021/07/17 09:26:18;;;;;;;2.72;1.20;;;24.80;57.10;;;;;;4992148;28;20092;-80
2021/07/17 09:28:54;;;;;;;1.17;0.90;;;24.80;58.00;;;;;;4981748;28;20505;-79
2021/07/17 09:31:20;;;;;;;1.98;1.10;;;24.90;58.30;;;;;;4978567;28;20149;-80
2021/07/17 09:33:48;;;;;;;1.95;1.17;;;25.00;58.40;;;;;;4986204;28;20153;-81
2021/07/17 09:36:15;;;;;;;2.75;1.30;;;25.20;58.10;;;;;;4983153;28;20026;-81
2021/07/17 09:38:47;;;;;;;2.58;1.00;;;25.20;57.70;;;;;;4990132;28;20022;-81
2021/07/17 09:41:13;;;;;;;3.00;1.20;;;25.20;57.50;;;;;;4988349;28;20389;-79
2021/07/17 09:43:42;;;;;;;2.45;1.00;;;25.30;57.20;;;;;;4990310;28;20034;-80
2021/07/17 09:46:22;;;;;;;2.70;1.10;;;25.30;57.20;;;;;;4990428;28;20027;-81
2021/07/17 09:49:00;;;;;;;2.40;1.20;;;25.30;57.30;;;;;;4995632;28;20036;-81
2021/07/17 09:51:28;;;;;;;2.78;1.10;;;25.40;57.00;;;;;;4984443;28;20080;-81
2021/07/17 09:54:06;;;;;;;2.40;0.88;;;25.40;56.60;;;;;;4983409;28;20149;-80
2021/07/17 09:56:35;;;;;;;2.63;1.23;;;25.50;56.40;;;;;;4984059;28;20493;-80
2021/07/17 09:59:06;;;;;;;2.13;0.90;;;25.50;55.80;;;;;;4986341;28;20023;-80
2021/07/17 10:01:37;;;;;;;2.00;0.95;;;25.50;55.60;;;;;;4988883;28;20119;-80
2021/07/17 10:04:14;;;;;;;2.60;1.00;;;25.50;55.40;;;;;;4985599;28;20026;-80
2021/07/17 10:06:56;;;;;;;1.40;0.80;;;25.50;55.30;;;;;;4986622;28;20054;-80
2021/07/17 10:09:25;;;;;;;1.92;1.10;;;25.50;55.60;;;;;;4993248;28;20448;-80
2021/07/17 10:11:58;;;;;;;2.47;1.10;;;25.60;55.60;;;;;;4994065;28;20025;-80
2021/07/17 10:14:27;;;;;;;3.85;1.15;;;25.50;55.30;;;;;;4993987;28;20116;-80
2021/07/17 10:16:55;;;;;;;3.17;0.93;;;25.60;55.40;;;;;;4993479;28;20022;-80
2021/07/17 10:19:23;;;;;;;2.45;1.05;;;25.70;55.30;;;;;;4981687;28;20374;-79
2021/07/17 10:21:48;;;;;;;2.35;1.10;;;25.80;55.10;;;;;;4980265;28;20587;-80
2021/07/17 10:24:15;;;;;;;2.08;1.00;;;25.70;54.70;;;;;;4982934;28;20026;-80
2021/07/17 10:26:41;;;;;;;1.40;0.93;;;25.90;55.20;;;;;;4983218;28;20019;-80
2021/07/17 10:29:10;;;;;;;3.92;1.00;;;26.00;54.80;;;;;;4991492;28;20038;-80
2021/07/17 10:31:36;;;;;;;3.17;1.27;;;26.00;54.20;;;;;;4990274;28;20081;-80
2021/07/17 10:34:02;;;;;;;2.40;0.90;;;26.00;53.80;;;;;;4992045;28;20039;-80
2021/07/17 10:36:30;;;;;;;1.70;1.00;;;26.00;54.00;;;;;;4994881;28;20527;-81
2021/07/17 10:39:00;;;;;;;3.17;1.23;;;26.10;54.00;;;;;;4981432;28;20561;-80
2021/07/17 10:41:30;;;;;;;2.00;1.00;;;26.00;53.00;;;;;;4984910;28;20026;-80
2021/07/17 10:43:56;;;;;;;3.88;1.15;;;26.10;53.60;;;;;;4989456;28;20035;-80
2021/07/17 10:46:31;;;;;;;1.63;0.80;;;26.00;53.70;;;;;;4975646;28;20081;-80
2021/07/17 10:48:58;;;;;;;1.25;0.80;;;26.10;53.40;;;;;;4975777;28;20038;-80
2021/07/17 10:51:26;;;;;;;1.90;0.77;;;26.10;53.50;;;;;;4978926;28;20042;-81
2021/07/17 10:53:58;;;;;;;2.55;0.80;;;26.30;53.90;;;;;;4985819;28;20424;-80
2021/07/17 10:56:29;;;;;;;3.80;1.33;;;26.30;53.40;;;;;;4991156;28;20054;-80
2021/07/17 10:59:11;;;;;;;2.40;0.93;;;26.20;53.00;;;;;;4978722;28;20133;-82
2021/07/17 11:02:04;;;;;;;3.33;1.10;;;26.20;53.40;;;;;;4986267;28;20030;-81
2021/07/17 11:04:40;;;;;;;1.67;0.80;;;26.30;52.90;;;;;;4975748;28;20093;-81
2021/07/17 11:07:18;;;;;;;1.38;0.73;;;26.20;53.60;;;;;;4979236;28;20035;-80
2021/07/17 11:10:03;;;;;;;1.52;0.80;;;26.30;53.50;;;;;;4975566;28;20573;-81
2021/07/17 11:12:31;;;;;;;1.33;0.60;;;26.40;53.90;;;;;;4975119;28;20392;-79
2021/07/17 11:15:17;;;;;;;1.95;0.80;;;26.70;53.80;;;;;;4982775;28;20029;-80
2021/07/17 11:17:48;;;;;;;2.15;0.93;;;26.80;53.20;;;;;;4986693;28;20540;-80
2021/07/17 11:20:20;;;;;;;1.75;0.82;;;26.80;52.10;;;;;;4992847;28;20058;-80
2021/07/17 11:22:46;;;;;;;;;;;26.80;52.40;;;;;;4991658;28;20477;-80
2021/07/17 11:25:16;;;;;;;1.58;0.82;;;26.80;52.30;;;;;;4993816;28;19914;-80
2021/07/17 11:27:43;;;;;;;3.17;1.08;;;26.90;52.30;;;;;;4979504;28;20029;-80
2021/07/17 11:30:16;;;;;;;2.33;1.00;;;26.90;51.60;;;;;;4991033;28;20069;-80
2021/07/17 11:33:05;;;;;;;2.47;0.80;;;26.90;52.20;;;;;;4990816;28;20038;-80
2021/07/17 11:35:35;;;;;;;2.95;1.10;;;27.10;52.20;;;;;;4986456;28;20177;-80
2021/07/17 11:38:02;;;;;;;1.98;1.10;;;27.10;51.70;;;;;;4985700;28;20084;-79
2021/07/17 11:40:28;;;;;;;2.35;0.98;;;27.10;51.70;;;;;;4986101;28;20027;-79
2021/07/17 11:43:00;;;;;;;1.73;0.90;;;27.20;51.80;;;;;;4990639;28;20029;-79
2021/07/17 11:45:25;;;;;;;;;;;27.30;51.70;;;;;;4984749;28;20143;-79
2021/07/17 11:47:51;;;;;;;2.63;0.93;;;27.50;51.70;;;;;;4985391;28;19980;-79
2021/07/17 11:50:16;;;;;;;2.05;0.98;;;27.60;51.40;;;;;;4984309;28;20043;-78
2021/07/17 11:52:42;;;;;;;2.63;0.90;;;27.50;50.60;;;;;;4984136;28;20033;-79
2021/07/17 11:55:13;;;;;;;3.22;1.17;;;27.60;51.00;;;;;;4988874;28;20145;-79
2021/07/17 11:57:40;;;;;;;1.98;0.70;;;27.70;50.40;;;;;;4986379;28;20149;-79
2021/07/17 12:00:17;;;;;;;1.33;0.70;;;27.80;50.80;;;;;;4987212;28;20493;-79
2021/07/17 12:02:49;;;;;;;3.70;1.02;;;27.90;50.70;;;;;;4991465;28;20027;-78
2021/07/17 12:05:15;;;;;;;;;;;27.90;50.10;;;;;;4989227;28;20050;-79
2021/07/17 12:07:42;;;;;;;1.38;1.00;;;27.90;50.30;;;;;;4986127;28;19972;-78
2021/07/17 12:10:13;;;;;;;1.92;0.90;;;27.90;49.90;;;;;;4981427;28;20394;-79
2021/07/17 12:12:49;;;;;;;2.10;0.90;;;27.90;49.50;;;;;;4980303;28;20421;-79
2021/07/17 12:15:19;;;;;;;3.25;1.08;;;27.90;49.70;;;;;;4988711;28;20033;-79
2021/07/17 12:17:47;;;;;;;2.15;0.85;;;27.90;49.40;;;;;;4983240;28;20031;-79
2021/07/17 12:20:34;;;;;;;2.35;0.90;;;28.10;49.90;;;;;;4972640;28;20034;-81
2021/07/17 12:23:07;;;;;;;2.28;1.10;;;28.30;50.00;;;;;;4987015;28;20030;-79
2021/07/17 12:25:39;;;;;;;1.60;0.95;;;28.40;49.50;;;;;;4992073;28;20026;-79
2021/07/17 12:28:13;;;;;;;2.22;1.02;;;28.40;49.10;;;;;;4991485;28;20031;-79
2021/07/17 12:30:46;;;;;;;3.17;0.90;;;28.40;48.80;;;;;;4991802;28;20033;-79
2021/07/17 12:33:26;;;;;;;1.83;0.70;;;28.50;48.70;;;;;;4990431;28;20046;-79
2021/07/17 12:36:00;;;;;;;2.08;0.80;;;28.60;48.10;;;;;;4973465;28;20037;-79
2021/07/17 12:38:28;;;;;;;2.40;0.80;;;28.70;47.80;;;;;;4971724;28;20026;-79
2021/07/17 12:41:01;;;;;;;2.30;1.00;;;28.80;47.70;;;;;;4973063;28;20030;-79
2021/07/17 12:43:35;;;;;;;1.42;0.93;;;28.90;47.10;;;;;;4973224;28;20026;-79
2021/07/17 12:46:07;;;;;;;1.50;0.80;;;28.80;46.70;;;;;;4971885;28;20459;-79